KHOP/HOP METAR and TAF weather

Enter ICAO airport designator
Station Type Date Time Source
KHOP METAR 2019/12/16 03:46 UTC NOAA

KHOP 160346Z AUTO 13006KT 8SM -DZ FEW020 BKN031 05/05 A2988 RMK AO2 DZE0259DZB31 SLP124


Station Type Date Time Source
KHOP Decoded METAR 2019/12/16 03:46 UTC NOAA

Fort Campbell U. S. Army Airfield, KY, United States (KHOP) 36-40N 087-30W 174M
Dec 15, 2019 - 10:46 PM EST / 2019.12.16 0346 UTC
Wind: from the SE (130 degrees) at 7 MPH (6 KT):0
Visibility: 8 mile(s):0
Sky conditions: mostly cloudy
Weather: light drizzle
Temperature: 41 F (5 C)
Dew Point: 41 F (5 C)
Relative Humidity: 100%
Pressure (altimeter): 29.88 in. Hg (1011 hPa)
ob: KHOP 160346Z AUTO 13006KT 8SM -DZ FEW020 BKN031 05/05 A2988 RMK AO2 DZE0259DZB31 SLP124
cycle: 4

Station Type Date Time Source
KHOP TAF 2019/12/16 00:12 UTC NOAA

TAF KHOP 160000Z 1600/1706 VRB06KT 9999 FEW002 SCT006 OVC030 QNH2992INS
TEMPO 1600/1610 6000 SHRA BR OVC009
BECMG 1610/1611 35006KT 9999 FEW006 BKN010 OVC020 QNH2993INS
BECMG 1614/1615 35012KT 8000 -SHRA SCT002 BKN006 OVC010 QNH2993INS
TEMPO 1618/1622 0800 SHRA TX10/1606Z TN01/1700Z

Example: see airport list